No particular awareness of the weather is required.    There are no Weather-warnings
 Banner
iom-flag.gif  iom-flag.gif


Ballaugh webcam more information Ballaugh webcam


Thunder radar more information blitzortung!


Rain radar more information rain snow radar


Visit our other weather sites:

Template documentation
and downloads

And another site



Nearby METAR Reports

   
EGNS - Isle Of Man/Rona, United Kingdom
Distance from station: SSW 16 mi
Updated: 19-08-2018 06:20
Mostly Cloudy  
Mostly Cloudy  
   Wind: WSW 13.8 mph
Wind: WSW 13.8 mph
Temperature: 16°C
Dew Point: 15°C
Humidity: 94%
Barometer: 1010 hPa
Clouds: Mostly Cloudy
Visibility: More than 6 mi
Cloud details: Few Clouds 400 ft,
Mostly Cloudy 1200 ft
EGNS 190520Z 24012KT 210V270 9999 FEW004 BKN012 16/15 Q1010 TEMPO 5000 BKN004
EGAC - Belfast Harbour, United Kingdom
Distance from station: WNW 57 mi
Updated: 19-08-2018 06:20
Mostly Cloudy  
Mostly Cloudy  
   Wind: WSW 8.1 mph
Wind: WSW 8.1 mph
Temperature: 17°C
Dew Point: 16°C
Humidity: 94%
Barometer: 1009 hPa
Clouds: Mostly Cloudy
Visibility: More than 6 mi
Cloud details: Mostly Cloudy 1100 ft
EGAC 190520Z AUTO 25007KT 9999 BKN011/// 17/16 Q1009
EGAA - Belfast/Aldergro, United Kingdom
Distance from station: WNW 71 mi
Updated: 19-08-2018 06:20
Mostly Cloudy  
Mostly Cloudy  
   Wind: WNW 8.1 mph
Wind: WNW 8.1 mph
Temperature: 16°C
Dew Point: 16°C
Humidity: 100%
Barometer: 1010 hPa
Clouds: Mostly Cloudy
Visibility: More than 6 mi
Cloud details: Mostly Cloudy 200 ft
EGAA 190520Z 30007KT 9999 4000S BKN002 16/16 Q1010 REDZ
EGNH - Blackpool Airpor, United Kingdom
Distance from station: ESE 73 mi
Updated: 19-08-2018 06:20
Light Rain, Mist, Mostly Cloudy  
Light Rain, Mist, Mostly Cloudy  
   Wind: SW 27.6 mph
Wind: SW 27.6 mph
Temperature: 17°C
Dew Point: 17°C
Humidity: 100%
Barometer: 1011 hPa
Clouds: Mostly Cloudy
Visibility: 2 mi
Cloud details: Mostly Cloudy 300 ft
EGNH 190520Z 23024KT 3000 -RA BR BKN003 17/17 Q1011
EGOV - Valley Raf, United Kingdom
Distance from station: S 73 mi
Updated: 19-08-2018 05:50
Mist, Mostly Cloudy  
Mist, Mostly Cloudy  
   Wind: SW 24.2 mph
Wind: SW 24.2 mph
Temperature: 16°C
Dew Point: 16°C
Humidity: 100%
Barometer: 1011 hPa
Clouds: Mostly Cloudy
Visibility: 4 mi
Cloud details: Mostly Cloudy 400 ft,
Mostly Cloudy 2500 ft
EGOV 190450Z AUTO 22021KT 6000 BR BKN004/// BKN025/// 16/16 Q1011
EGNC - Carlisle, United Kingdom
Distance from station: ENE 81 mi
Updated: 17-08-2018 17:50
NOT Current
Nearby Showers, Mostly Cloudy  
Nearby Showers, Mostly Cloudy  
   Wind: SW 18.4 mph
Wind: SW 18.4 mph
Temperature: 14°C
Dew Point: 13°C
Humidity: 94%
Barometer: 1012 hPa
Clouds: Mostly Cloudy
Visibility: 5 mi
Cloud details: Partly Cloudy 800 ft,
Mostly Cloudy 1800 ft
EGNC 171650Z 23016KT 190V270 8000 VCSH SCT008 BKN018 14/13 Q1012
EGPK - Prestwick(Civ/Na, United Kingdom
Distance from station: N 82 mi
Updated: 19-08-2018 05:50
Light Drizzle, Mostly Cloudy  
Light Drizzle, Mostly Cloudy  
   Wind: ENE 3.5 mph
Wind: ENE 3.5 mph
Temperature: 16°C
Dew Point: 16°C
Humidity: 100%
Barometer: 1009 hPa
Clouds: Mostly Cloudy
Visibility: 3 mi
Cloud details: Mostly Cloudy 1000 ft
EGPK 190450Z 06003KT 5000 -DZ BKN010 16/16 Q1009
EIDW - Dublin Airport, Ireland
Distance from station: SW 93 mi
Updated: 19-08-2018 06:00
Mostly Cloudy  
Mostly Cloudy  
   Wind: West 16.1 mph<br />Gust to 16.1 mph
Wind: West 16.1 mph
Gust to 16.1 mph
Temperature: 16°C
Dew Point: 15°C
Humidity: 94%
Barometer: 1011 hPa
Clouds: Mostly Cloudy
Visibility: More than 6 mi
Cloud details: Few Clouds 700 ft,
Mostly Cloudy 900 ft,
Mostly Cloudy 1300 ft
EIDW 190500Z 26014G26KT 9999 FEW007 BKN009 BKN013 16/15 Q1011 TEMPO 5000 BKN008
EGGP - Liverpool Airpor, United Kingdom
Distance from station: SE 98 mi
Updated: 19-08-2018 06:20
Nearby Showers, Mostly Cloudy  
Nearby Showers, Mostly Cloudy  
   Wind: South 11.5 mph
Wind: South 11.5 mph
Temperature: 18°C
Dew Point: 17°C
Humidity: 94%
Barometer: 1012 hPa
Clouds: Mostly Cloudy
Visibility: 4 mi
Cloud details: Partly Cloudy 1000 ft,
Mostly Cloudy 1600 ft
EGGP 190520Z 19010KT 7000 VCSH SCT010 BKN016 18/17 Q1012
EGPF - Glasgow Airport, United Kingdom
Distance from station: N 107 mi
Updated: 19-08-2018 06:20
Drizzle, Overcast  
Drizzle, Overcast  
   Wind: NE 10.4 mph
Wind: NE 10.4 mph
Temperature: 15°C
Dew Point: 15°C
Humidity: 100%
Barometer: 1010 hPa
Clouds: Overcast
Visibility: 2 mi
Cloud details: Mostly Cloudy 400 ft,
Overcast 1200 ft
EGPF 190520Z AUTO 04009KT 2400 DZ BKN004 OVC012 15/15 Q1010
EGCC - Manchester Intl, United Kingdom
Distance from station: SE 114 mi
Updated: 19-08-2018 06:20
Light Rain, Overcast  
Light Rain, Overcast  
   Wind: South 9.2 mph
Wind: South 9.2 mph
Temperature: 18°C
Dew Point: 15°C
Humidity: 83%
Barometer: 1012 hPa
Clouds: Overcast
Visibility: More than 6 mi
Cloud details: Mostly Cloudy 1300 ft,
Overcast 1900 ft
EGCC 190520Z AUTO 19008KT 150V220 9999 -RA BKN013 OVC019 18/15 Q1012 NOSIG
EGNM - Leeds And Bradfo, United Kingdom
Distance from station: ESE 122 mi
Updated: 19-08-2018 06:20
Mostly Cloudy  
Mostly Cloudy  
   Wind: SW 11.5 mph
Wind: SW 11.5 mph
Temperature: 17°C
Dew Point: 15°C
Humidity: 88%
Barometer: 1012 hPa
Clouds: Mostly Cloudy
Visibility: More than 6 mi
Cloud details: Partly Cloudy 1000 ft,
Mostly Cloudy 1200 ft
EGNM 190520Z 22010KT 180V260 9999 SCT010 BKN012 17/15 Q1012

Script developed by  Saratoga-weather.org Adapted for the template by  Weerstation Leuven

You find our weather info also at:

UK Metoffice

WeatherCloud

WeatherlinkIP

Equipment we use:

Weather-station
Davis VP2

Weather-program
Weather Display

Weather-server
My Computer

Provider
Fasthosts

Davis VP2

Weather Display

My Computer

Fasthosts

 Banner1
iom-flag.gif  iom-flag.gif
Flag Counter 

Hits since site created in 2003